Terminal Aerodrome Forecast
Issued by NWS

Home | Current Version | Previous Version | Text Only | Print | Product List | Glossary On
Versions: 1 2 3 4 5 6 7 8 9 10 11 12 13 14 15 16 17 18 19 20 21 22 23 24 25 26 27 28 29 30 31 32 33 34 35 36 37 38 39 40 41 42 43
000
FTUS44 KHGX 030524
TAFLBX
TAF
KLBX 030524Z 0306/0406 VRB04KT 1/2SM FG OVC002
     FM030800 VRB03KT 1/4SM FG OVC001
     FM031500 15007KT 2SM BR OVC005
     FM031800 16013G23KT 5SM BR BKN007 OVC012
     FM032100 17013KT 6SM BR BKN012 OVC025
     FM040200 15010KT 4SM BR OVC008=

USA.gov is the U.S. government's official web portal to all federal, state and local government web resources and services.